createdAt,value
2017-10-11T00:00:38.082Z,88.23
2017-10-11T00:03:05.570Z,88.42
2017-10-11T00:05:33.234Z,88.34
2017-10-11T00:08:00.723Z,88.64
2017-10-11T00:10:29.203Z,88.83
2017-10-11T00:12:56.697Z,88.75
2017-10-11T00:15:24.180Z,88.84
2017-10-11T00:17:51.677Z,88.92
2017-10-11T00:20:19.159Z,88.98
2017-10-11T00:22:46.675Z,89.03
2017-10-11T00:25:14.162Z,89.05
2017-10-11T00:27:41.689Z,89.09
2017-10-11T00:30:09.190Z,89.19
2017-10-11T00:32:36.686Z,89.21
2017-10-11T00:35:04.480Z,89.45
2017-10-11T00:37:31.955Z,89.38
2017-10-11T00:39:59.439Z,89.57
2017-10-11T00:42:26.917Z,89.51
2017-10-11T00:44:54.387Z,89.16
2017-10-11T00:47:21.882Z,88.85
2017-10-11T00:49:49.352Z,88.50
2017-10-11T00:52:16.871Z,89.01
2017-10-11T00:54:44.407Z,88.69
2017-10-11T00:57:12.150Z,88.91
2017-10-11T00:59:39.696Z,89.02
2017-10-11T01:02:07.166Z,88.95
2017-10-11T01:04:34.644Z,89.17
2017-10-11T01:07:02.115Z,89.16
2017-10-11T01:09:29.918Z,89.39
2017-10-11T01:11:57.391Z,89.38
2017-10-11T01:14:24.919Z,89.21
2017-10-11T01:16:52.396Z,88.84
2017-10-11T01:19:19.882Z,88.64
2017-10-11T01:21:47.362Z,88.88
2017-10-11T01:24:14.843Z,89.06
2017-10-11T01:26:42.319Z,89.23
2017-10-11T01:29:09.790Z,89.27
2017-10-11T01:31:37.287Z,89.43
2017-10-11T01:34:04.767Z,89.39
2017-10-11T01:36:32.327Z,89.48
2017-10-11T01:38:59.817Z,89.43
2017-10-11T01:41:27.352Z,89.42
2017-10-11T01:43:54.842Z,89.48
2017-10-11T01:46:22.318Z,89.77
2017-10-11T01:48:49.807Z,89.73
2017-10-11T01:51:17.275Z,89.86
2017-10-11T01:53:44.758Z,89.72
2017-10-11T01:56:12.254Z,89.32
2017-10-11T01:58:39.744Z,89.68
2017-10-11T02:01:07.231Z,89.74
2017-10-11T02:03:34.705Z,89.71
2017-10-11T02:06:02.181Z,89.53
2017-10-11T02:08:29.787Z,89.35
2017-10-11T02:10:57.340Z,89.43
2017-10-11T02:13:24.821Z,88.93
2017-10-11T02:15:52.295Z,89.15
2017-10-11T02:18:19.763Z,88.87
2017-10-11T02:20:47.285Z,88.62
2017-10-11T02:23:14.764Z,88.09
2017-10-11T02:25:42.256Z,88.00
2017-10-11T02:28:09.724Z,88.03
2017-10-11T02:30:37.190Z,87.86
2017-10-11T02:33:04.667Z,87.45
2017-10-11T02:35:32.136Z,87.41
2017-10-11T02:37:59.671Z,87.31
2017-10-11T02:40:27.149Z,86.69
2017-10-11T02:42:54.617Z,86.77
2017-10-11T02:45:22.108Z,87.15
2017-10-11T02:47:49.608Z,87.12
2017-10-11T02:50:17.116Z,87.19
2017-10-11T02:52:44.579Z,87.28
2017-10-11T02:55:12.035Z,86.91
2017-10-11T02:57:39.511Z,86.84
2017-10-11T03:00:07.002Z,87.53
2017-10-11T03:02:34.572Z,86.93
2017-10-11T03:05:02.135Z,86.80
2017-10-11T03:07:29.627Z,87.00
2017-10-11T03:09:57.112Z,87.66
2017-10-11T03:12:24.586Z,88.04
2017-10-11T03:14:52.088Z,88.03
2017-10-11T03:17:19.560Z,88.45
2017-10-11T03:19:47.034Z,88.50
2017-10-11T03:22:14.560Z,88.83
2017-10-11T03:24:42.291Z,89.11
2017-10-11T03:27:09.801Z,88.22
2017-10-11T03:29:37.263Z,88.31
2017-10-11T03:32:05.599Z,87.68
2017-10-11T03:34:33.086Z,87.48
2017-10-11T03:37:00.570Z,87.78
2017-10-11T03:39:28.075Z,87.69
2017-10-11T03:41:55.542Z,87.59
2017-10-11T03:44:23.002Z,87.33
2017-10-11T03:46:50.545Z,86.93
2017-10-11T03:49:18.003Z,86.97
2017-10-11T03:51:45.467Z,86.45
2017-10-11T03:54:12.934Z,86.25
2017-10-11T03:56:40.807Z,85.93
2017-10-11T03:59:08.869Z,85.67
2017-10-11T04:01:36.343Z,85.63
2017-10-11T04:04:03.828Z,85.73
2017-10-11T04:06:31.287Z,85.86
2017-10-11T04:08:58.784Z,86.61
2017-10-11T04:11:26.331Z,86.16
2017-10-11T04:13:53.827Z,86.21
2017-10-11T04:16:21.304Z,85.92
2017-10-11T04:18:48.857Z,85.99
2017-10-11T04:21:16.681Z,86.12
2017-10-11T04:23:44.140Z,85.94
2017-10-11T04:26:11.625Z,85.63
2017-10-11T04:28:39.104Z,85.79
2017-10-11T04:31:06.555Z,85.36
2017-10-11T04:33:34.008Z,85.58
2017-10-11T04:36:01.529Z,85.48
2017-10-11T04:38:29.006Z,85.42
2017-10-11T04:40:56.493Z,85.17
2017-10-11T04:43:23.956Z,84.96
2017-10-11T04:45:51.711Z,85.24
2017-10-11T04:48:19.169Z,85.90
2017-10-11T04:50:46.618Z,85.85
2017-10-11T04:53:14.114Z,85.30
2017-10-11T04:55:41.571Z,85.67
2017-10-11T04:58:09.036Z,86.35
2017-10-11T05:00:36.503Z,86.26
2017-10-11T05:03:04.403Z,86.62
2017-10-11T05:05:31.875Z,86.65
2017-10-11T05:07:59.337Z,86.44
2017-10-11T05:10:26.814Z,86.66
2017-10-11T05:12:54.333Z,86.36
2017-10-11T05:15:21.921Z,86.23
2017-10-11T05:17:49.410Z,86.07
2017-10-11T05:20:16.939Z,86.32
2017-10-11T05:22:44.455Z,86.51
2017-10-11T05:25:11.950Z,86.24
2017-10-11T05:27:40.090Z,86.57
2017-10-11T05:30:07.569Z,86.77
2017-10-11T05:32:35.718Z,86.70
2017-10-11T05:35:05.039Z,86.87
2017-10-11T05:37:32.742Z,87.03
2017-10-11T05:40:00.229Z,86.98
2017-10-11T05:42:30.014Z,86.81
2017-10-11T05:44:57.558Z,87.02
2017-10-11T05:47:25.031Z,86.80
2017-10-11T05:49:52.518Z,86.87
2017-10-11T05:52:20.088Z,87.07
2017-10-11T05:54:47.640Z,87.25
2017-10-11T05:57:15.124Z,87.29
2017-10-11T05:59:42.626Z,87.61
2017-10-11T06:02:10.120Z,87.30
2017-10-11T06:04:37.586Z,87.17
2017-10-11T06:07:05.065Z,87.42
2017-10-11T06:09:32.560Z,87.47
2017-10-11T06:12:00.470Z,87.84
2017-10-11T06:14:27.946Z,87.36
2017-10-11T06:16:55.420Z,87.59
2017-10-11T06:19:22.949Z,87.57
2017-10-11T06:21:50.524Z,87.71
2017-10-11T06:24:18.012Z,88.02
2017-10-11T06:26:45.568Z,87.94
2017-10-11T06:29:13.036Z,88.30
2017-10-11T06:31:40.615Z,88.56
2017-10-11T06:34:08.114Z,88.91
2017-10-11T06:36:35.585Z,89.07
2017-10-11T06:39:03.073Z,89.21
2017-10-11T06:41:30.544Z,89.28
2017-10-11T06:43:58.031Z,89.22
2017-10-11T06:46:25.514Z,88.99
2017-10-11T06:48:53.358Z,88.88
2017-10-11T06:51:20.887Z,88.88
2017-10-11T06:53:48.460Z,88.33
2017-10-11T06:56:15.982Z,87.90
2017-10-11T06:58:43.539Z,88.09
2017-10-11T07:01:11.037Z,87.81
2017-10-11T07:03:38.601Z,87.44
2017-10-11T07:06:06.116Z,87.55
2017-10-11T07:08:33.632Z,87.44
2017-10-11T07:11:01.135Z,87.21
2017-10-11T07:13:28.690Z,87.01
2017-10-11T07:15:56.198Z,86.50
2017-10-11T07:18:23.767Z,86.10
2017-10-11T07:20:52.402Z,85.89
2017-10-11T07:23:19.967Z,85.65
2017-10-11T07:25:48.100Z,85.88
2017-10-11T07:28:15.639Z,85.31
2017-10-11T07:30:43.468Z,85.39
2017-10-11T07:33:10.957Z,85.34
2017-10-11T07:35:38.452Z,85.38
2017-10-11T07:38:05.936Z,84.61
2017-10-11T07:40:33.415Z,84.40
2017-10-11T07:43:00.976Z,84.44
2017-10-11T07:45:28.469Z,83.73
2017-10-11T07:47:55.958Z,83.78
2017-10-11T07:50:23.435Z,83.48
2017-10-11T07:52:50.949Z,82.90
2017-10-11T07:55:18.529Z,82.41
2017-10-11T07:57:46.023Z,82.72
2017-10-11T08:00:13.599Z,82.75
2017-10-11T08:02:41.107Z,81.90
2017-10-11T08:05:08.629Z,82.01
2017-10-11T08:07:36.340Z,82.60
2017-10-11T08:10:03.890Z,82.91
2017-10-11T08:12:31.700Z,83.23
2017-10-11T08:14:59.334Z,82.90
2017-10-11T08:17:26.903Z,83.00
2017-10-11T08:19:54.392Z,83.07
2017-10-11T08:22:21.910Z,83.68
2017-10-11T08:24:49.455Z,83.31
2017-10-11T08:27:16.933Z,82.67
2017-10-11T08:29:44.410Z,82.51
2017-10-11T08:32:11.896Z,81.88
2017-10-11T08:34:39.380Z,82.03
2017-10-11T08:37:06.870Z,80.87
2017-10-11T08:39:34.384Z,81.15
2017-10-11T08:42:01.870Z,79.57
2017-10-11T08:44:29.667Z,79.47
2017-10-11T08:46:57.168Z,79.09
2017-10-11T08:49:24.653Z,78.80
2017-10-11T08:51:52.136Z,78.75
2017-10-11T08:54:19.623Z,77.63
2017-10-11T08:56:47.228Z,76.31
2017-10-11T08:59:14.701Z,76.45
2017-10-11T09:01:42.163Z,76.84
2017-10-11T09:04:09.710Z,75.97
2017-10-11T09:06:37.172Z,76.00
2017-10-11T09:09:04.633Z,75.32
2017-10-11T09:11:32.093Z,75.17
2017-10-11T09:13:59.596Z,74.86
2017-10-11T09:16:27.072Z,74.72
2017-10-11T09:18:54.903Z,73.53
2017-10-11T09:21:22.410Z,73.52
2017-10-11T09:23:49.887Z,73.20
2017-10-11T09:26:17.440Z,73.11
2017-10-11T09:28:44.937Z,73.36
2017-10-11T09:31:12.747Z,73.60
2017-10-11T09:33:40.207Z,73.24
2017-10-11T09:36:07.704Z,72.98
2017-10-11T09:38:35.204Z,73.13
2017-10-11T09:41:02.673Z,72.63
2017-10-11T09:43:30.160Z,72.49
2017-10-11T09:45:57.672Z,71.35
2017-10-11T09:48:25.455Z,70.31
2017-10-11T09:50:52.927Z,70.12
2017-10-11T09:53:20.395Z,70.42
2017-10-11T09:55:47.945Z,70.04
2017-10-11T09:58:15.464Z,71.16
2017-10-11T10:00:42.925Z,71.15
2017-10-11T10:03:10.447Z,70.22
2017-10-11T10:05:37.988Z,70.21
2017-10-11T10:08:05.495Z,70.08
2017-10-11T10:10:32.976Z,70.23
2017-10-11T10:13:00.460Z,69.78
2017-10-11T10:15:27.958Z,68.44
2017-10-11T10:17:55.463Z,69.32
2017-10-11T10:20:22.957Z,68.44
2017-10-11T10:22:50.434Z,68.84
2017-10-11T10:25:17.919Z,68.96
2017-10-11T10:27:45.402Z,68.93
2017-10-11T10:30:12.911Z,69.41
2017-10-11T10:32:40.404Z,69.79
2017-10-11T10:35:07.864Z,69.49
2017-10-11T10:37:35.341Z,69.20
2017-10-11T10:40:02.812Z,68.27
2017-10-11T10:42:30.338Z,68.12
2017-10-11T10:44:57.804Z,68.74
2017-10-11T10:47:25.267Z,68.68
2017-10-11T10:49:52.743Z,68.85
2017-10-11T10:52:20.236Z,67.77
2017-10-11T10:54:47.763Z,67.21
2017-10-11T10:57:15.291Z,67.62
2017-10-11T10:59:42.754Z,67.06
2017-10-11T11:02:10.248Z,67.13
2017-10-11T11:04:37.748Z,68.05
2017-10-11T11:07:05.239Z,67.52
2017-10-11T11:09:32.708Z,67.81
2017-10-11T11:12:00.557Z,66.73
2017-10-11T11:14:28.030Z,66.85
2017-10-11T11:16:55.526Z,67.04
2017-10-11T11:19:23.054Z,66.30
2017-10-11T11:21:50.519Z,67.24
2017-10-11T11:24:18.029Z,67.28
2017-10-11T11:26:45.502Z,66.75
2017-10-11T11:29:12.972Z,67.16
2017-10-11T11:31:40.476Z,67.13
2017-10-11T11:34:07.945Z,66.72
2017-10-11T11:36:35.441Z,67.07
2017-10-11T11:39:02.920Z,67.50
2017-10-11T11:41:30.383Z,68.15
2017-10-11T11:43:57.879Z,67.67
2017-10-11T11:46:25.409Z,68.06
2017-10-11T11:48:52.915Z,67.92
2017-10-11T11:51:20.397Z,68.42
2017-10-11T11:53:48.231Z,68.85
2017-10-11T11:56:15.690Z,68.41
2017-10-11T11:58:43.242Z,67.68
2017-10-11T12:01:10.739Z,67.08
2017-10-11T12:03:38.226Z,66.71
2017-10-11T12:06:05.722Z,67.42
2017-10-11T12:08:33.219Z,68.19
2017-10-11T12:11:00.727Z,67.44
2017-10-11T12:13:28.249Z,67.46
2017-10-11T12:15:55.777Z,68.40
2017-10-11T12:18:23.267Z,67.89
2017-10-11T12:20:50.746Z,67.26
2017-10-11T12:23:18.277Z,66.97
2017-10-11T12:25:45.797Z,66.55
2017-10-11T12:28:13.314Z,66.95
2017-10-11T12:30:40.798Z,66.60
2017-10-11T12:33:08.275Z,66.13
2017-10-11T12:35:35.783Z,66.36
2017-10-11T12:38:04.203Z,66.39
2017-10-11T12:40:31.681Z,66.29
2017-10-11T12:42:59.188Z,66.74
2017-10-11T12:45:26.744Z,67.69
2017-10-11T12:47:54.246Z,66.95
2017-10-11T12:50:21.733Z,67.15
2017-10-11T12:52:49.229Z,66.27
2017-10-11T12:55:16.718Z,66.52
2017-10-11T12:57:44.225Z,66.73
2017-10-11T13:00:11.714Z,66.91
2017-10-11T13:02:39.200Z,67.87
2017-10-11T13:05:06.658Z,66.84
2017-10-11T13:07:34.139Z,67.59
2017-10-11T13:10:01.600Z,68.11
2017-10-11T13:12:29.122Z,68.17
2017-10-11T13:14:56.584Z,67.30
2017-10-11T13:17:24.152Z,67.05
2017-10-11T13:19:51.740Z,68.00
2017-10-11T13:22:19.279Z,67.65
2017-10-11T13:24:46.776Z,68.18
2017-10-11T13:27:14.328Z,67.84
2017-10-11T13:29:41.838Z,67.96
2017-10-11T13:32:09.360Z,67.83
2017-10-11T13:34:36.862Z,68.08
2017-10-11T13:37:04.362Z,68.85
2017-10-11T13:39:31.868Z,69.24
2017-10-11T13:41:59.362Z,68.82
2017-10-11T13:44:26.862Z,69.16
2017-10-11T13:46:54.359Z,68.80
2017-10-11T13:49:21.836Z,69.67
2017-10-11T13:51:49.318Z,69.73
2017-10-11T13:54:16.815Z,69.26
2017-10-11T13:56:44.283Z,69.92
2017-10-11T13:59:11.773Z,69.79
2017-10-11T14:01:39.249Z,69.51
2017-10-11T14:04:06.740Z,69.73
2017-10-11T14:06:34.214Z,70.18
2017-10-11T14:09:01.718Z,70.07
2017-10-11T14:11:29.180Z,70.22
2017-10-11T14:13:56.688Z,70.05
2017-10-11T14:16:24.182Z,69.66
2017-10-11T14:18:51.644Z,70.10
2017-10-11T14:21:19.113Z,70.24
2017-10-11T14:23:46.600Z,70.62
2017-10-11T14:26:14.062Z,70.29
2017-10-11T14:28:41.544Z,69.99
2017-10-11T14:31:09.082Z,70.70
2017-10-11T14:33:36.558Z,70.65
2017-10-11T14:36:04.122Z,70.96
2017-10-11T14:38:31.628Z,71.88
2017-10-11T14:40:59.118Z,72.16
2017-10-11T14:43:26.630Z,72.49
2017-10-11T14:45:54.417Z,72.59
2017-10-11T14:48:21.932Z,72.77
2017-10-11T14:50:49.396Z,72.08
2017-10-11T14:53:16.883Z,72.65
2017-10-11T14:55:44.335Z,73.00
2017-10-11T14:58:11.834Z,73.36
2017-10-11T15:00:39.328Z,73.18
2017-10-11T15:03:06.850Z,73.31
2017-10-11T15:05:34.348Z,73.56
2017-10-11T15:08:01.896Z,73.53
2017-10-11T15:10:29.414Z,73.67
2017-10-11T15:12:56.882Z,73.71
2017-10-11T15:15:24.429Z,73.81
2017-10-11T15:17:51.914Z,73.92
2017-10-11T15:20:19.379Z,74.35
2017-10-11T15:22:46.910Z,74.29
2017-10-11T15:25:14.381Z,74.57
2017-10-11T15:27:41.862Z,74.80
2017-10-11T15:30:09.313Z,74.90
2017-10-11T15:32:36.790Z,74.64
2017-10-11T15:35:04.305Z,74.69
2017-10-11T15:37:31.778Z,74.80
2017-10-11T15:39:59.873Z,74.60
2017-10-11T15:42:27.370Z,74.97
2017-10-11T15:44:54.885Z,74.95
2017-10-11T15:47:22.630Z,74.94
2017-10-11T15:49:50.102Z,75.17
2017-10-11T15:52:17.576Z,75.14
2017-10-11T15:54:45.067Z,75.22
2017-10-11T15:57:12.554Z,74.88
2017-10-11T15:59:40.047Z,74.74
2017-10-11T16:02:07.534Z,75.24
2017-10-11T16:04:35.007Z,75.34
2017-10-11T16:07:02.494Z,75.44
2017-10-11T16:09:29.952Z,75.30
2017-10-11T16:11:57.439Z,74.80
2017-10-11T16:14:24.932Z,75.18
2017-10-11T16:16:52.400Z,75.19
2017-10-11T16:19:19.881Z,75.19
2017-10-11T16:21:47.380Z,75.06
2017-10-11T16:24:14.872Z,75.09
2017-10-11T16:26:42.355Z,75.19
2017-10-11T16:29:09.821Z,74.94
2017-10-11T16:31:37.306Z,74.71
2017-10-11T16:34:04.775Z,74.25
2017-10-11T16:36:32.257Z,74.63
2017-10-11T16:39:00.169Z,74.89
2017-10-11T16:41:27.627Z,74.19
2017-10-11T16:43:55.097Z,74.26
2017-10-11T16:46:22.592Z,74.24
2017-10-11T16:48:50.064Z,74.14
2017-10-11T16:51:17.543Z,74.13
2017-10-11T16:53:45.058Z,74.18
2017-10-11T16:56:12.560Z,73.97
2017-10-11T16:58:40.080Z,73.93
2017-10-11T17:01:07.849Z,74.09
2017-10-11T17:03:35.317Z,73.75
2017-10-11T17:06:02.865Z,73.94
2017-10-11T17:08:30.400Z,73.94
2017-10-11T17:10:57.877Z,74.11
2017-10-11T17:13:25.327Z,74.21
2017-10-11T17:15:52.825Z,74.12
2017-10-11T17:18:20.295Z,74.34
2017-10-11T17:20:48.050Z,74.50
2017-10-11T17:23:15.544Z,74.41
2017-10-11T17:25:43.062Z,74.45
2017-10-11T17:28:10.532Z,74.62
2017-10-11T17:30:38.023Z,74.04
2017-10-11T17:33:05.507Z,74.09
2017-10-11T17:35:32.976Z,73.76
2017-10-11T17:38:00.478Z,73.61
2017-10-11T17:40:27.946Z,73.76
2017-10-11T17:42:55.417Z,73.74
2017-10-11T17:45:22.918Z,73.71
2017-10-11T17:47:50.393Z,73.86
2017-10-11T17:50:17.873Z,73.87
2017-10-11T17:52:45.334Z,74.06
2017-10-11T17:55:12.827Z,74.25
2017-10-11T17:57:40.298Z,74.32
2017-10-11T18:00:07.761Z,74.41
2017-10-11T18:02:35.306Z,74.47
2017-10-11T18:05:02.786Z,74.84
2017-10-11T18:07:30.301Z,74.84
2017-10-11T18:09:57.765Z,74.56
2017-10-11T18:12:25.264Z,75.07
2017-10-11T18:14:52.755Z,75.01
2017-10-11T18:17:20.235Z,75.02
2017-10-11T18:19:47.703Z,75.24
2017-10-11T18:22:15.182Z,75.31
2017-10-11T18:24:42.666Z,75.44
2017-10-11T18:27:10.125Z,75.80
2017-10-11T18:29:37.627Z,76.09
2017-10-11T18:32:05.152Z,76.31
2017-10-11T18:34:32.621Z,76.25
2017-10-11T18:37:00.103Z,76.47
2017-10-11T18:39:27.584Z,76.57
2017-10-11T18:41:56.705Z,76.96
2017-10-11T18:44:24.218Z,76.91
2017-10-11T18:46:51.726Z,77.33
2017-10-11T18:49:19.395Z,77.43
2017-10-11T18:51:46.880Z,77.61
2017-10-11T18:54:14.359Z,77.93
2017-10-11T18:56:41.900Z,78.01
2017-10-11T18:59:09.386Z,78.26
2017-10-11T19:01:36.911Z,78.35
2017-10-11T19:04:04.392Z,78.58
2017-10-11T19:06:31.844Z,78.77
2017-10-11T19:08:59.348Z,78.97
2017-10-11T19:11:27.458Z,79.51
2017-10-11T19:13:54.944Z,79.49
2017-10-11T19:16:22.424Z,79.60
2017-10-11T19:18:49.885Z,79.66
2017-10-11T19:21:17.362Z,79.86
2017-10-11T19:23:44.824Z,80.11
2017-10-11T19:26:12.285Z,80.46
2017-10-11T19:28:39.841Z,80.61
2017-10-11T19:31:07.306Z,80.77
2017-10-11T19:33:34.784Z,80.74
2017-10-11T19:36:02.334Z,80.84
2017-10-11T19:38:29.797Z,80.85
2017-10-11T19:40:57.307Z,80.99
2017-10-11T19:43:24.790Z,81.21
2017-10-11T19:45:52.298Z,81.23
2017-10-11T19:48:19.769Z,81.44
2017-10-11T19:50:47.250Z,81.27
2017-10-11T19:53:15.138Z,81.13
2017-10-11T19:55:42.602Z,81.11
2017-10-11T19:58:10.091Z,81.27
2017-10-11T20:00:37.635Z,81.39
2017-10-11T20:03:05.108Z,81.50
2017-10-11T20:05:32.648Z,81.49
2017-10-11T20:08:00.128Z,81.47
2017-10-11T20:10:27.655Z,81.89
2017-10-11T20:12:55.140Z,81.70
2017-10-11T20:15:23.010Z,81.67
2017-10-11T20:17:50.471Z,81.44
2017-10-11T20:20:17.924Z,81.16
2017-10-11T20:22:45.425Z,81.26
2017-10-11T20:25:12.909Z,81.32
2017-10-11T20:27:40.512Z,81.04
2017-10-11T20:30:07.978Z,80.94
2017-10-11T20:32:35.439Z,80.95
2017-10-11T20:35:02.921Z,80.68
2017-10-11T20:37:30.377Z,80.82
2017-10-11T20:39:57.847Z,81.29
2017-10-11T20:42:25.299Z,81.72
2017-10-11T20:44:52.770Z,81.82
2017-10-11T20:47:20.253Z,81.73
2017-10-11T20:49:47.736Z,81.68
2017-10-11T20:52:15.213Z,81.55
2017-10-11T20:54:42.722Z,81.57
2017-10-11T20:57:10.236Z,81.95
2017-10-11T20:59:37.705Z,82.14
2017-10-11T21:02:05.198Z,82.20
2017-10-11T21:04:32.672Z,81.73
2017-10-11T21:07:00.139Z,82.09
2017-10-11T21:09:27.750Z,82.07
2017-10-11T21:11:55.211Z,82.21
2017-10-11T21:14:22.789Z,81.96
2017-10-11T21:16:50.243Z,81.84
2017-10-11T21:19:17.735Z,81.56
2017-10-11T21:21:45.203Z,81.25
2017-10-11T21:24:12.661Z,81.69
2017-10-11T21:26:40.137Z,81.38
2017-10-11T21:29:07.618Z,81.90
2017-10-11T21:31:35.458Z,81.95
2017-10-11T21:34:02.925Z,81.81
2017-10-11T21:36:30.422Z,81.89
2017-10-11T21:38:57.977Z,81.71
2017-10-11T21:41:25.432Z,81.80
2017-10-11T21:43:52.924Z,81.87
2017-10-11T21:46:20.440Z,82.13
2017-10-11T21:48:47.926Z,82.19
2017-10-11T21:51:15.390Z,82.31
2017-10-11T21:53:42.874Z,82.54
2017-10-11T21:56:10.363Z,82.46
2017-10-11T21:58:37.850Z,82.94
2017-10-11T22:01:05.326Z,82.96
2017-10-11T22:03:32.787Z,83.00
2017-10-11T22:06:00.252Z,83.37
2017-10-11T22:08:27.707Z,83.61
2017-10-11T22:10:55.184Z,83.92
2017-10-11T22:13:22.616Z,84.24
2017-10-11T22:15:50.042Z,84.76
2017-10-11T22:18:17.491Z,84.74
2017-10-11T22:20:44.982Z,85.04
2017-10-11T22:23:12.434Z,85.20
2017-10-11T22:25:39.902Z,85.48
2017-10-11T22:28:07.377Z,86.00
2017-10-11T22:30:34.776Z,86.00
2017-10-11T22:33:02.342Z,86.24
2017-10-11T22:35:29.814Z,86.55
2017-10-11T22:37:57.291Z,86.59
2017-10-11T22:40:24.827Z,86.48
2017-10-11T22:42:52.294Z,86.62
2017-10-11T22:45:19.762Z,86.97
2017-10-11T22:47:47.224Z,87.19
2017-10-11T22:50:14.701Z,87.04
2017-10-11T22:52:42.138Z,86.92
2017-10-11T22:55:09.581Z,86.97
2017-10-11T22:57:37.032Z,86.95
2017-10-11T23:00:04.460Z,86.43
2017-10-11T23:02:31.954Z,86.37
2017-10-11T23:04:59.398Z,86.54
2017-10-11T23:07:26.870Z,86.44
2017-10-11T23:09:54.325Z,86.36
2017-10-11T23:12:21.792Z,86.56
2017-10-11T23:14:49.181Z,86.84
2017-10-11T23:17:16.603Z,86.87
2017-10-11T23:19:44.073Z,86.70
2017-10-11T23:22:11.463Z,86.58
2017-10-11T23:24:38.924Z,86.62
2017-10-11T23:27:06.418Z,86.28
2017-10-11T23:29:33.853Z,85.80
2017-10-11T23:32:01.342Z,85.81
2017-10-11T23:34:28.785Z,86.52
2017-10-11T23:36:56.213Z,86.52
2017-10-11T23:39:23.705Z,86.51
2017-10-11T23:41:51.164Z,86.51
2017-10-11T23:44:18.577Z,86.58
2017-10-11T23:46:46.000Z,86.66
2017-10-11T23:49:13.416Z,86.99
2017-10-11T23:51:40.824Z,86.94
2017-10-11T23:54:08.342Z,86.43
2017-10-11T23:56:35.775Z,85.87
2017-10-11T23:59:03.235Z,86.02
